createdAt,value
2023-03-21T00:04:24.311Z,3.80
2023-03-21T00:09:26.077Z,4.55
2023-03-21T00:14:31.116Z,4.90
2023-03-21T00:19:32.764Z,4.32
2023-03-21T00:24:35.291Z,3.25
2023-03-21T00:29:36.755Z,4.15
2023-03-21T00:34:59.604Z,3.00
2023-03-21T00:40:02.813Z,2.42
2023-03-21T00:45:07.096Z,3.33
2023-03-21T00:50:09.353Z,4.25
2023-03-21T00:55:14.349Z,3.22
2023-03-21T01:00:17.998Z,3.50
2023-03-21T01:05:39.434Z,3.67
2023-03-21T01:10:46.151Z,3.67
2023-03-21T01:15:53.781Z,3.65
2023-03-21T01:20:57.525Z,2.83
2023-03-21T01:25:59.088Z,3.22
2023-03-21T01:31:02.783Z,3.30
2023-03-21T01:36:13.160Z,3.60
2023-03-21T01:41:42.040Z,3.47
2023-03-21T01:47:11.565Z,3.08
2023-03-21T01:52:26.533Z,3.72
2023-03-21T01:57:49.490Z,2.75
2023-03-21T02:03:11.565Z,2.90
2023-03-21T02:08:15.625Z,3.42
2023-03-21T02:13:17.470Z,3.20
2023-03-21T02:18:29.298Z,3.13
2023-03-21T02:23:51.239Z,4.15
2023-03-21T02:28:57.784Z,3.42
2023-03-21T02:34:21.922Z,2.72
2023-03-21T02:39:38.443Z,1.98
2023-03-21T02:44:43.495Z,2.92
2023-03-21T02:50:00.411Z,2.60
2023-03-21T02:55:05.100Z,2.40
2023-03-21T03:00:16.491Z,2.22
2023-03-21T03:05:30.531Z,2.35
2023-03-21T03:10:53.345Z,3.17
2023-03-21T03:16:19.875Z,2.60
2023-03-21T03:21:42.272Z,3.00
2023-03-21T03:26:51.189Z,3.13
2023-03-21T03:32:01.059Z,2.80
2023-03-21T03:37:06.467Z,2.40
2023-03-21T03:42:27.587Z,2.80
2023-03-21T03:47:56.788Z,2.83
2023-03-21T03:53:23.463Z,2.17
2023-03-21T03:58:36.117Z,2.00
2023-03-21T04:03:49.014Z,2.42
2023-03-21T04:08:52.093Z,2.88
2023-03-21T04:13:53.635Z,3.13
2023-03-21T04:18:55.054Z,2.65
2023-03-21T04:23:56.496Z,2.20
2023-03-21T04:29:00.216Z,2.20
2023-03-21T04:34:03.517Z,2.72
2023-03-21T04:39:12.171Z,3.85
2023-03-21T04:44:15.867Z,2.90
2023-03-21T04:49:18.909Z,2.53
2023-03-21T04:54:21.042Z,2.72
2023-03-21T04:59:22.477Z,2.33
2023-03-21T05:04:24.603Z,2.70
2023-03-21T05:09:26.209Z,2.50
2023-03-21T05:14:28.358Z,6.90
2023-03-21T05:19:40.637Z,4.88
2023-03-21T05:24:42.319Z,2.67
2023-03-21T05:29:43.838Z,2.88
2023-03-21T05:34:46.404Z,2.70
2023-03-21T05:39:47.903Z,2.38
2023-03-21T05:44:49.611Z,2.38
2023-03-21T05:49:51.110Z,2.13
2023-03-21T05:54:52.586Z,3.15
2023-03-21T05:59:54.030Z,1.98
2023-03-21T06:04:56.610Z,2.80
2023-03-21T06:09:58.107Z,2.25
2023-03-21T06:14:59.638Z,2.10
2023-03-21T06:20:01.247Z,2.40
2023-03-21T06:25:03.523Z,1.88
2023-03-21T06:30:06.482Z,2.03
2023-03-21T06:35:08.237Z,1.45
2023-03-21T06:40:10.719Z,1.40
2023-03-21T06:45:12.162Z,1.63
2023-03-21T06:50:13.970Z,1.52
2023-03-21T06:55:15.406Z,1.52
2023-03-21T07:00:18.159Z,1.20
2023-03-21T07:05:19.726Z,1.50
2023-03-21T07:10:21.243Z,1.40
2023-03-21T07:15:22.685Z,1.67
2023-03-21T07:20:24.223Z,1.47
2023-03-21T07:25:25.725Z,1.90
2023-03-21T07:30:27.475Z,1.90
2023-03-21T07:35:28.999Z,1.50
2023-03-21T07:40:31.819Z,1.83
2023-03-21T07:45:33.373Z,1.70
2023-03-21T07:50:35.042Z,2.05
2023-03-21T07:55:36.865Z,1.20
2023-03-21T08:00:38.492Z,1.25
2023-03-21T08:05:41.183Z,1.45
2023-03-21T08:10:46.372Z,1.55
2023-03-21T08:15:48.512Z,1.60
2023-03-21T08:20:57.851Z,1.48
2023-03-21T08:25:59.389Z,2.13
2023-03-21T08:31:00.902Z,0.95
2023-03-21T08:36:02.795Z,1.40
2023-03-21T08:41:04.349Z,1.80
2023-03-21T08:46:06.389Z,1.63
2023-03-21T08:51:10.879Z,1.10
2023-03-21T08:56:12.919Z,1.60
2023-03-21T09:01:15.831Z,2.25
2023-03-21T09:06:17.413Z,1.58
2023-03-21T09:11:19.166Z,1.77
2023-03-21T09:16:21.003Z,1.77
2023-03-21T09:21:23.706Z,1.23
2023-03-21T09:26:26.451Z,1.67
2023-03-21T09:31:28.287Z,1.50
2023-03-21T09:36:30.552Z,2.53
2023-03-21T09:41:32.314Z,1.63
2023-03-21T09:46:44.674Z,1.40
2023-03-21T09:51:51.751Z,1.63
2023-03-21T09:56:56.478Z,1.73
2023-03-21T10:02:00.237Z,1.73
2023-03-21T10:07:02.662Z,2.63
2023-03-21T10:12:20.848Z,2.30
2023-03-21T10:17:43.782Z,2.20
2023-03-21T10:22:46.943Z,2.10
2023-03-21T10:27:52.144Z,2.30
2023-03-21T10:32:59.146Z,2.10
2023-03-21T10:38:01.632Z,1.95
2023-03-21T10:43:27.612Z,1.60
2023-03-21T10:48:36.147Z,1.90
2023-03-21T10:53:47.440Z,1.98
2023-03-21T10:58:50.325Z,2.55
2023-03-21T11:03:57.942Z,2.70
2023-03-21T11:09:09.891Z,2.10
2023-03-21T11:14:38.012Z,2.88
2023-03-21T11:19:39.409Z,2.65
2023-03-21T11:24:44.058Z,2.15
2023-03-21T11:29:51.150Z,2.30
2023-03-21T11:35:19.867Z,2.25
2023-03-21T11:40:32.888Z,1.75
2023-03-21T11:45:36.245Z,1.70
2023-03-21T11:50:41.816Z,1.73
2023-03-21T11:55:49.687Z,1.52
2023-03-21T12:01:29.076Z,1.80
2023-03-21T12:06:30.461Z,1.70
2023-03-21T12:12:01.288Z,1.88
2023-03-21T12:17:29.810Z,1.50
2023-03-21T12:22:58.028Z,1.40
2023-03-21T12:28:32.111Z,1.60
2023-03-21T12:34:01.996Z,1.20
2023-03-21T12:39:26.682Z,1.30
2023-03-21T12:44:31.728Z,1.15
2023-03-21T12:49:38.545Z,1.00
2023-03-21T12:54:44.676Z,1.33
2023-03-21T12:59:56.022Z,1.02
2023-03-21T13:05:01.553Z,1.10
2023-03-21T13:10:13.918Z,0.63
2023-03-21T13:15:39.540Z,0.77
2023-03-21T13:20:50.296Z,0.80
2023-03-21T13:25:57.341Z,1.05
2023-03-21T13:31:24.930Z,0.90
2023-03-21T13:36:31.313Z,1.13
2023-03-21T13:41:39.539Z,1.45
2023-03-21T13:46:54.279Z,1.30
2023-03-21T13:51:58.489Z,1.27
2023-03-21T13:57:04.757Z,1.42
2023-03-21T14:02:15.209Z,1.20
2023-03-21T14:07:23.170Z,1.10
2023-03-21T14:12:28.780Z,1.70
2023-03-21T14:17:32.903Z,1.45
2023-03-21T14:22:34.369Z,1.73
2023-03-21T14:27:37.800Z,1.45
2023-03-21T14:32:40.593Z,1.00
2023-03-21T14:37:45.952Z,1.50
2023-03-21T14:42:49.920Z,1.50
2023-03-21T14:48:16.519Z,1.35
2023-03-21T14:53:25.403Z,1.30
2023-03-21T14:58:27.835Z,0.80
2023-03-21T15:03:30.672Z,1.38
2023-03-21T15:08:32.182Z,1.10
2023-03-21T15:13:43.113Z,1.00
2023-03-21T15:18:45.655Z,1.10
2023-03-21T15:23:49.347Z,0.95
2023-03-21T15:28:56.992Z,0.85
2023-03-21T15:33:58.681Z,0.93
2023-03-21T15:39:14.818Z,0.85
2023-03-21T15:44:17.688Z,0.90
2023-03-21T15:49:33.552Z,0.80
2023-03-21T15:54:50.954Z,0.80
2023-03-21T16:00:35.999Z,1.13
2023-03-21T16:05:38.000Z,1.35
2023-03-21T16:10:39.608Z,1.30
2023-03-21T16:15:41.170Z,1.20
2023-03-21T16:20:45.043Z,1.40
2023-03-21T16:25:47.041Z,1.08
2023-03-21T16:30:48.538Z,1.20
2023-03-21T16:35:50.068Z,1.30
2023-03-21T16:40:51.761Z,1.00
2023-03-21T16:45:53.322Z,1.08
2023-03-21T16:50:54.818Z,1.40
2023-03-21T16:56:02.760Z,1.58
2023-03-21T17:01:04.242Z,2.10
2023-03-21T17:06:06.116Z,1.70
2023-03-21T17:11:12.323Z,1.70
2023-03-21T17:16:16.448Z,1.25
2023-03-21T17:21:21.044Z,1.48
2023-03-21T17:26:25.621Z,1.20
2023-03-21T17:31:31.834Z,1.42
2023-03-21T17:36:36.636Z,1.30
2023-03-21T17:41:38.154Z,1.17
2023-03-21T17:46:39.706Z,2.53
2023-03-21T17:51:41.322Z,2.03
2023-03-21T17:56:42.816Z,1.17
2023-03-21T18:01:44.753Z,1.35
2023-03-21T18:06:46.183Z,2.88
2023-03-21T18:11:47.687Z,1.58
2023-03-21T18:16:50.706Z,1.58
2023-03-21T18:21:52.242Z,1.80
2023-03-21T18:26:54.509Z,2.90
2023-03-21T18:32:06.256Z,4.43
2023-03-21T18:37:09.050Z,3.17
2023-03-21T18:42:18.674Z,2.55
2023-03-21T18:47:22.409Z,3.17
2023-03-21T18:52:26.309Z,2.75
2023-03-21T18:57:36.390Z,2.60
2023-03-21T19:02:45.534Z,2.47
2023-03-21T19:07:48.235Z,2.75
2023-03-21T19:12:52.622Z,3.20
2023-03-21T19:23:17.411Z,3.42
2023-03-21T19:28:19.759Z,3.47
2023-03-21T19:33:22.724Z,3.85
2023-03-21T19:38:24.132Z,7.10
2023-03-21T19:43:32.738Z,10.55
2023-03-21T19:48:38.018Z,11.85
2023-03-21T19:53:40.032Z,7.82
2023-03-21T19:58:41.761Z,6.97
2023-03-21T20:03:47.242Z,7.45
2023-03-21T20:14:10.529Z,6.15
2023-03-21T20:19:15.983Z,6.30
2023-03-21T20:24:17.711Z,4.47
2023-03-21T20:30:07.179Z,3.90
2023-03-21T20:34:40.628Z,2.60
2023-03-21T20:39:42.517Z,2.22
2023-03-21T20:44:57.853Z,3.83
2023-03-21T20:50:00.231Z,3.13
2023-03-21T20:55:01.676Z,2.30
2023-03-21T21:00:08.871Z,4.35
2023-03-21T21:05:25.133Z,4.53
2023-03-21T21:10:33.534Z,5.65
2023-03-21T21:15:35.932Z,5.97
2023-03-21T21:20:38.810Z,4.63
2023-03-21T21:25:40.441Z,5.65
2023-03-21T21:30:42.768Z,6.28
2023-03-21T21:35:48.557Z,5.97
2023-03-21T21:40:51.698Z,5.05
2023-03-21T21:45:53.738Z,5.13
2023-03-21T21:50:55.237Z,4.53
2023-03-21T21:55:56.635Z,10.00
2023-03-21T22:00:58.966Z,6.20
2023-03-21T22:06:03.221Z,4.03
2023-03-21T22:11:06.067Z,4.10
2023-03-21T22:16:07.823Z,3.40
2023-03-21T22:21:09.850Z,2.45
2023-03-21T22:26:11.356Z,3.90
2023-03-21T22:31:15.787Z,3.63
2023-03-21T22:36:17.357Z,3.72
2023-03-21T22:41:18.811Z,3.00
2023-03-21T22:46:20.293Z,3.13
2023-03-21T22:51:21.764Z,2.40
2023-03-21T22:56:23.210Z,3.15
2023-03-21T23:01:24.684Z,3.22
2023-03-21T23:06:26.167Z,3.20
2023-03-21T23:11:27.622Z,5.00
2023-03-21T23:16:29.106Z,3.53
2023-03-21T23:21:32.107Z,3.33
2023-03-21T23:26:34.623Z,3.28
2023-03-21T23:31:36.702Z,2.88
2023-03-21T23:36:38.153Z,2.70
2023-03-21T23:41:41.400Z,2.35
2023-03-21T23:46:42.814Z,2.00
2023-03-21T23:51:44.749Z,3.38
2023-03-21T23:56:46.333Z,4.22
